createdAt,value
2023-01-02T00:01:11.483Z,91.27
2023-01-02T00:03:38.972Z,91.08
2023-01-02T00:06:07.259Z,92.03
2023-01-02T00:08:36.059Z,92.28
2023-01-02T00:11:03.498Z,93.72
2023-01-02T00:13:30.950Z,94.11
2023-01-02T00:15:58.528Z,94.66
2023-01-02T00:18:26.099Z,94.47
2023-01-02T00:20:53.540Z,93.96
2023-01-02T00:23:20.986Z,93.74
2023-01-02T00:25:50.751Z,94.51
2023-01-02T00:28:18.194Z,92.93
2023-01-02T00:30:45.656Z,93.19
2023-01-02T00:33:13.274Z,93.88
2023-01-02T00:35:40.737Z,93.68
2023-01-02T00:38:08.237Z,93.85
2023-01-02T00:40:36.195Z,93.98
2023-01-02T00:43:05.379Z,95.06
2023-01-02T00:45:32.952Z,94.87
2023-01-02T00:48:00.883Z,94.69
2023-01-02T00:50:28.337Z,94.24
2023-01-02T00:52:55.789Z,93.54
2023-01-02T00:55:23.283Z,93.65
2023-01-02T00:57:50.792Z,93.81
2023-01-02T01:00:24.094Z,94.01
2023-01-02T01:02:56.909Z,94.97
2023-01-02T01:05:24.573Z,93.87
2023-01-02T01:07:52.057Z,93.58
2023-01-02T01:10:19.510Z,93.64
2023-01-02T01:12:49.334Z,93.28
2023-01-02T01:15:16.987Z,92.83
2023-01-02T01:17:45.807Z,94.17
2023-01-02T01:20:13.313Z,94.26
2023-01-02T01:22:40.775Z,94.00
2023-01-02T01:25:09.012Z,95.36
2023-01-02T01:27:36.491Z,94.81
2023-01-02T01:30:04.225Z,94.05
2023-01-02T01:32:31.762Z,94.91
2023-01-02T01:35:00.571Z,95.44
2023-01-02T01:37:28.049Z,94.89
2023-01-02T01:39:56.852Z,94.81
2023-01-02T01:42:24.601Z,95.28
2023-01-02T01:44:54.260Z,95.86
2023-01-02T01:47:33.086Z,95.83
2023-01-02T01:50:06.320Z,95.04
2023-01-02T01:52:36.260Z,94.33
2023-01-02T01:55:09.868Z,94.11
2023-01-02T01:57:40.501Z,94.32
2023-01-02T02:00:09.513Z,95.01
2023-01-02T02:02:37.699Z,96.21
2023-01-02T02:05:08.232Z,95.61
2023-01-02T02:07:38.639Z,94.78
2023-01-02T02:10:08.787Z,95.00
2023-01-02T02:12:36.335Z,94.23
2023-01-02T02:15:03.974Z,95.17
2023-01-02T02:17:41.365Z,97.39
2023-01-02T02:20:31.700Z,96.93
2023-01-02T02:23:34.545Z,96.36
2023-01-02T02:26:20.452Z,97.24
2023-01-02T02:29:12.561Z,95.66
2023-01-02T02:31:51.892Z,96.16
2023-01-02T02:34:24.526Z,95.63
2023-01-02T02:36:59.042Z,95.11
2023-01-02T02:39:35.259Z,97.24
2023-01-02T02:42:12.606Z,95.78
2023-01-02T02:44:50.438Z,98.23
2023-01-02T02:47:27.937Z,94.48
2023-01-02T02:50:02.835Z,97.23
2023-01-02T02:52:33.603Z,97.23
2023-01-02T02:55:06.863Z,95.51
2023-01-02T02:57:35.862Z,95.11
2023-01-02T03:00:06.601Z,94.64
2023-01-02T03:02:35.715Z,96.41
2023-01-02T03:05:08.261Z,94.47
2023-01-02T03:07:40.642Z,94.83
2023-01-02T03:10:19.213Z,95.17
2023-01-02T03:12:52.699Z,95.28
2023-01-02T03:15:26.478Z,95.14
2023-01-02T03:18:08.317Z,97.02
2023-01-02T03:20:40.897Z,95.43
2023-01-02T03:23:14.879Z,95.92
2023-01-02T03:25:44.707Z,95.51
2023-01-02T03:28:13.906Z,95.50
2023-01-02T03:30:42.664Z,96.02
2023-01-02T03:33:16.000Z,95.45
2023-01-02T03:35:46.295Z,96.83
2023-01-02T03:38:17.074Z,96.22
2023-01-02T03:40:48.971Z,95.43
2023-01-02T03:43:19.248Z,96.87
2023-01-02T03:45:51.927Z,97.01
2023-01-02T03:48:29.907Z,96.95
2023-01-02T03:50:59.986Z,96.28
2023-01-02T03:53:29.351Z,95.47
2023-01-02T03:56:12.874Z,95.61
2023-01-02T03:58:47.088Z,94.75
2023-01-02T04:01:22.790Z,94.76
2023-01-02T04:03:57.432Z,94.62
2023-01-02T04:06:29.098Z,95.67
2023-01-02T04:09:03.998Z,95.02
2023-01-02T04:11:34.438Z,94.75
2023-01-02T04:14:10.847Z,94.51
2023-01-02T04:16:40.139Z,94.78
2023-01-02T04:19:13.468Z,96.01
2023-01-02T04:21:42.729Z,96.52
2023-01-02T04:24:14.176Z,96.69
2023-01-02T04:26:46.612Z,96.87
2023-01-02T04:29:14.285Z,96.24
2023-01-02T04:31:46.819Z,97.31
2023-01-02T04:34:18.911Z,95.59
2023-01-02T04:36:46.829Z,96.18
2023-01-02T04:39:14.455Z,96.51
2023-01-02T04:41:42.307Z,95.39
2023-01-02T04:44:09.761Z,94.78
2023-01-02T04:46:37.250Z,95.50
2023-01-02T04:49:04.789Z,96.64
2023-01-02T04:51:33.565Z,95.61
2023-01-02T04:54:01.015Z,95.86
2023-01-02T04:56:28.515Z,95.53
2023-01-02T04:58:55.962Z,96.69
2023-01-02T05:01:23.706Z,97.07
2023-01-02T05:03:52.578Z,97.53
2023-01-02T05:06:20.466Z,96.50
2023-01-02T05:08:49.301Z,96.98
2023-01-02T05:11:19.808Z,96.58
2023-01-02T05:13:47.598Z,96.88
2023-01-02T05:16:15.152Z,97.11
2023-01-02T05:18:42.762Z,96.51
2023-01-02T05:21:32.516Z,95.59
2023-01-02T05:24:02.008Z,96.71
2023-01-02T05:26:32.626Z,96.42
2023-01-02T05:29:00.653Z,96.12
2023-01-02T05:31:28.635Z,96.81
2023-01-02T05:33:57.683Z,96.46
2023-01-02T05:36:26.622Z,96.17
2023-01-02T05:38:54.951Z,96.48
2023-01-02T05:41:24.521Z,96.18
2023-01-02T05:43:51.963Z,97.00
2023-01-02T05:46:21.305Z,96.08
2023-01-02T05:48:48.826Z,96.97
2023-01-02T05:51:18.069Z,97.16
2023-01-02T05:53:45.864Z,96.85
2023-01-02T05:56:15.246Z,96.04
2023-01-02T05:58:45.962Z,96.28
2023-01-02T06:01:15.782Z,97.28
2023-01-02T06:03:45.965Z,96.80
2023-01-02T06:06:13.914Z,96.95
2023-01-02T06:08:41.484Z,97.22
2023-01-02T06:11:09.202Z,96.87
2023-01-02T06:13:38.992Z,96.44
2023-01-02T06:16:10.394Z,97.05
2023-01-02T06:18:39.642Z,96.96
2023-01-02T06:21:09.978Z,96.57
2023-01-02T06:23:38.011Z,96.89
2023-01-02T06:26:07.057Z,97.01
2023-01-02T06:28:34.582Z,97.05
2023-01-02T06:31:02.894Z,97.45
2023-01-02T06:33:32.216Z,96.98
2023-01-02T06:36:00.340Z,97.35
2023-01-02T06:38:28.525Z,97.84
2023-01-02T06:40:56.822Z,97.46
2023-01-02T06:43:24.989Z,97.05
2023-01-02T06:45:53.054Z,97.17
2023-01-02T06:48:20.605Z,97.57
2023-01-02T06:50:49.393Z,97.75
2023-01-02T06:53:17.107Z,97.83
2023-01-02T06:55:51.817Z,97.20
2023-01-02T06:58:19.776Z,97.41
2023-01-02T07:00:47.346Z,97.89
2023-01-02T07:03:15.318Z,98.65
2023-01-02T07:05:42.962Z,98.69
2023-01-02T07:08:12.785Z,97.82
2023-01-02T07:10:40.581Z,97.82
2023-01-02T07:13:08.037Z,99.82
2023-01-02T07:15:36.149Z,99.58
2023-01-02T07:18:03.668Z,100.00
2023-01-02T07:20:31.107Z,100.00
2023-01-02T07:22:58.556Z,100.00
2023-01-02T07:25:27.346Z,99.49
2023-01-02T07:27:54.802Z,99.05
2023-01-02T07:30:22.266Z,99.76
2023-01-02T07:32:49.706Z,98.85
2023-01-02T07:35:17.276Z,98.77
2023-01-02T07:37:44.801Z,99.58
2023-01-02T07:40:13.348Z,99.13
2023-01-02T07:42:42.127Z,98.03
2023-01-02T07:45:10.578Z,97.23
2023-01-02T07:47:38.037Z,97.73
2023-01-02T07:50:06.277Z,97.12
2023-01-02T07:52:33.775Z,97.31
2023-01-02T07:55:01.206Z,98.11
2023-01-02T07:57:30.312Z,98.85
2023-01-02T07:59:59.105Z,97.72
2023-01-02T08:02:26.579Z,97.00
2023-01-02T08:04:54.356Z,97.77
2023-01-02T08:07:23.021Z,97.45
2023-01-02T08:09:50.648Z,98.35
2023-01-02T08:12:18.090Z,97.30
2023-01-02T08:14:45.562Z,97.81
2023-01-02T08:17:14.340Z,98.48
2023-01-02T08:19:41.814Z,98.72
2023-01-02T08:22:09.264Z,97.71
2023-01-02T08:24:36.702Z,97.92
2023-01-02T08:27:04.246Z,98.59
2023-01-02T08:29:31.881Z,98.24
2023-01-02T08:31:59.498Z,99.12
2023-01-02T08:34:28.277Z,100.00
2023-01-02T08:36:55.571Z,100.00
2023-01-02T08:39:23.043Z,100.00
2023-01-02T08:41:50.478Z,100.00
2023-01-02T08:44:17.922Z,99.18
2023-01-02T08:46:45.474Z,97.79
2023-01-02T08:49:13.176Z,97.63
2023-01-02T08:51:42.083Z,97.83
2023-01-02T08:54:09.558Z,97.93
2023-01-02T08:56:37.648Z,98.59
2023-01-02T08:59:07.239Z,97.39
2023-01-02T09:01:35.891Z,97.08
2023-01-02T09:04:11.179Z,98.56
2023-01-02T09:06:40.264Z,98.91
2023-01-02T09:09:12.298Z,98.91
2023-01-02T09:11:44.774Z,98.05
2023-01-02T09:14:12.235Z,96.83
2023-01-02T09:16:39.682Z,97.32
2023-01-02T09:19:07.852Z,96.92
2023-01-02T09:21:35.467Z,96.77
2023-01-02T09:24:02.988Z,96.83
2023-01-02T09:26:31.787Z,96.29
2023-01-02T09:28:59.115Z,97.61
2023-01-02T09:31:26.945Z,97.33
2023-01-02T09:33:55.100Z,97.07
2023-01-02T09:36:23.354Z,96.27
2023-01-02T09:38:54.844Z,97.67
2023-01-02T09:41:34.894Z,97.00
2023-01-02T09:44:11.088Z,96.42
2023-01-02T09:46:49.047Z,96.30
2023-01-02T09:49:19.477Z,95.97
2023-01-02T09:51:48.045Z,95.14
2023-01-02T09:54:25.977Z,95.55
2023-01-02T09:57:08.236Z,93.85
2023-01-02T09:59:43.427Z,93.99
2023-01-02T10:02:22.874Z,94.77
2023-01-02T10:05:07.639Z,94.23
2023-01-02T10:07:42.837Z,93.54
2023-01-02T10:10:16.221Z,93.05
2023-01-02T10:12:58.642Z,95.68
2023-01-02T10:15:29.241Z,94.92
2023-01-02T10:18:01.666Z,93.98
2023-01-02T10:20:36.593Z,94.91
2023-01-02T10:23:09.636Z,94.43
2023-01-02T10:25:49.479Z,94.59
2023-01-02T10:28:29.368Z,95.17
2023-01-02T10:31:06.938Z,94.00
2023-01-02T10:33:43.216Z,93.94
2023-01-02T10:36:21.382Z,93.87
2023-01-02T10:38:49.001Z,95.29
2023-01-02T10:41:16.726Z,93.63
2023-01-02T10:43:49.309Z,93.82
2023-01-02T10:46:16.795Z,94.16
2023-01-02T10:48:51.810Z,94.04
2023-01-02T10:51:19.958Z,92.13
2023-01-02T10:54:00.954Z,91.54
2023-01-02T10:56:32.087Z,91.28
2023-01-02T10:59:01.525Z,94.05
2023-01-02T11:01:29.896Z,92.05
2023-01-02T11:04:11.773Z,90.11
2023-01-02T11:06:51.729Z,88.15
2023-01-02T11:09:21.972Z,86.68
2023-01-02T11:11:51.990Z,87.65
2023-01-02T11:14:25.097Z,87.91
2023-01-02T11:16:52.882Z,89.40
2023-01-02T11:19:29.423Z,85.58
2023-01-02T11:21:58.498Z,86.80
2023-01-02T11:24:28.362Z,87.89
2023-01-02T11:26:58.480Z,88.25
2023-01-02T11:29:31.617Z,87.94
2023-01-02T11:32:01.979Z,83.31
2023-01-02T11:34:35.163Z,82.26
2023-01-02T11:37:05.314Z,84.55
2023-01-02T11:39:35.271Z,83.46
2023-01-02T11:42:32.490Z,82.89
2023-01-02T11:45:06.257Z,84.55
2023-01-02T11:47:36.903Z,80.17
2023-01-02T11:50:05.401Z,77.09
2023-01-02T11:52:36.784Z,82.06
2023-01-02T11:55:14.423Z,80.95
2023-01-02T11:57:48.553Z,82.93
2023-01-02T12:00:19.898Z,83.93
2023-01-02T12:02:49.315Z,82.52
2023-01-02T12:05:22.152Z,83.57
2023-01-02T12:07:55.598Z,82.27
2023-01-02T12:10:47.204Z,82.08
2023-01-02T12:13:40.356Z,79.90
2023-01-02T12:16:19.958Z,82.21
2023-01-02T12:19:02.557Z,82.65
2023-01-02T12:21:42.175Z,82.68
2023-01-02T12:24:31.718Z,81.88
2023-01-02T12:27:07.583Z,81.89
2023-01-02T12:29:48.885Z,82.43
2023-01-02T12:32:53.762Z,81.76
2023-01-02T12:35:48.126Z,79.46
2023-01-02T12:38:30.045Z,80.04
2023-01-02T12:41:16.115Z,81.28
2023-01-02T12:44:07.745Z,81.27
2023-01-02T12:47:01.834Z,80.78
2023-01-02T12:49:56.604Z,81.93
2023-01-02T12:52:46.441Z,79.25
2023-01-02T12:55:21.673Z,81.79
2023-01-02T12:57:56.175Z,77.23
2023-01-02T13:00:46.925Z,79.23
2023-01-02T13:03:35.879Z,77.65
2023-01-02T13:06:45.934Z,79.10
2023-01-02T13:09:06.408Z,77.82
2023-01-02T13:11:40.054Z,76.59
2023-01-02T13:14:11.400Z,78.33
2023-01-02T13:16:39.642Z,76.62
2023-01-02T13:19:18.914Z,75.23
2023-01-02T13:21:53.324Z,74.21
2023-01-02T13:24:25.324Z,72.40
2023-01-02T13:26:54.097Z,73.98
2023-01-02T13:29:41.771Z,74.25
2023-01-02T13:32:11.391Z,75.47
2023-01-02T13:34:48.009Z,77.46
2023-01-02T13:37:19.413Z,74.03
2023-01-02T13:39:50.984Z,75.61
2023-01-02T13:42:43.191Z,74.56
2023-01-02T13:45:15.111Z,75.40
2023-01-02T13:47:50.930Z,80.39
2023-01-02T13:50:23.581Z,75.15
2023-01-02T13:53:03.555Z,69.65
2023-01-02T13:55:33.992Z,74.50
2023-01-02T13:58:41.102Z,70.99
2023-01-02T14:01:34.618Z,75.88
2023-01-02T14:04:28.989Z,72.40
2023-01-02T14:07:00.007Z,72.89
2023-01-02T14:09:27.598Z,69.93
2023-01-02T14:11:59.650Z,69.51
2023-01-02T14:14:35.653Z,68.82
2023-01-02T14:17:14.982Z,67.71
2023-01-02T14:19:43.519Z,68.48
2023-01-02T14:22:13.154Z,69.96
2023-01-02T14:24:46.670Z,68.20
2023-01-02T14:27:28.170Z,66.65
2023-01-02T14:29:58.479Z,67.74
2023-01-02T14:32:38.198Z,67.08
2023-01-02T14:35:23.239Z,68.82
2023-01-02T14:37:53.698Z,68.56
2023-01-02T14:40:38.841Z,71.44
2023-01-02T14:43:30.905Z,73.00
2023-01-02T14:46:06.555Z,73.23
2023-01-02T14:48:40.183Z,73.14
2023-01-02T14:51:10.662Z,71.23
2023-01-02T14:53:50.370Z,71.47
2023-01-02T14:56:22.348Z,71.95
2023-01-02T14:58:53.239Z,74.20
2023-01-02T15:01:43.399Z,75.23
2023-01-02T15:04:21.304Z,76.25
2023-01-02T15:06:51.467Z,77.05
2023-01-02T15:09:28.063Z,75.10
2023-01-02T15:12:29.419Z,76.43
2023-01-02T15:14:58.245Z,77.00
2023-01-02T15:17:25.881Z,73.70
2023-01-02T15:19:54.271Z,74.58
2023-01-02T15:22:26.205Z,77.38
2023-01-02T15:24:55.126Z,76.74
2023-01-02T15:27:25.040Z,77.25
2023-01-02T15:29:55.293Z,78.55
2023-01-02T15:32:25.726Z,78.89
2023-01-02T15:34:56.573Z,77.88
2023-01-02T15:37:24.041Z,78.97
2023-01-02T15:39:53.969Z,78.87
2023-01-02T15:42:42.441Z,80.19
2023-01-02T15:45:15.157Z,81.07
2023-01-02T15:47:48.673Z,80.00
2023-01-02T15:50:19.760Z,79.87
2023-01-02T15:52:50.806Z,79.15
2023-01-02T15:55:19.935Z,81.11
2023-01-02T15:57:49.265Z,81.00
2023-01-02T16:00:34.430Z,80.70
2023-01-02T16:03:03.482Z,80.75
2023-01-02T16:05:43.879Z,80.27
2023-01-02T16:08:19.741Z,81.47
2023-01-02T16:10:51.217Z,81.01
2023-01-02T16:13:41.295Z,80.42
2023-01-02T16:16:15.915Z,81.03
2023-01-02T16:18:49.457Z,80.50
2023-01-02T16:21:18.165Z,80.86
2023-01-02T16:23:49.845Z,81.27
2023-01-02T16:26:18.834Z,80.44
2023-01-02T16:28:46.724Z,80.39
2023-01-02T16:31:17.042Z,80.91
2023-01-02T16:33:47.031Z,81.70
2023-01-02T16:36:22.175Z,81.28
2023-01-02T16:38:53.430Z,82.89
2023-01-02T16:42:22.133Z,82.40
2023-01-02T16:44:55.299Z,83.87
2023-01-02T16:47:23.302Z,83.74
2023-01-02T16:49:52.170Z,82.93
2023-01-02T16:52:19.669Z,83.15
2023-01-02T16:54:52.265Z,83.91
2023-01-02T16:57:23.343Z,84.89
2023-01-02T16:59:50.807Z,84.52
2023-01-02T17:02:18.347Z,85.04
2023-01-02T17:04:45.812Z,85.03
2023-01-02T17:07:18.664Z,85.22
2023-01-02T17:09:49.513Z,84.92
2023-01-02T17:12:16.995Z,85.21
2023-01-02T17:14:44.471Z,84.60
2023-01-02T17:17:11.900Z,84.48
2023-01-02T17:19:39.453Z,85.14
2023-01-02T17:22:06.906Z,84.97
2023-01-02T17:24:35.874Z,85.72
2023-01-02T17:27:03.310Z,85.46
2023-01-02T17:29:31.164Z,85.06
2023-01-02T17:31:58.806Z,84.71
2023-01-02T17:34:26.450Z,85.30
2023-01-02T17:36:55.210Z,84.62
2023-01-02T17:39:22.777Z,84.74
2023-01-02T17:41:52.036Z,84.92
2023-01-02T17:44:19.669Z,85.27
2023-01-02T17:49:35.384Z,84.65
2023-01-02T17:52:02.856Z,84.29
2023-01-02T17:54:30.296Z,84.52
2023-01-02T17:56:59.125Z,83.69
2023-01-02T17:59:26.613Z,83.56
2023-01-02T18:01:54.330Z,84.00
2023-01-02T18:04:22.041Z,84.38
2023-01-02T18:06:49.502Z,84.28
2023-01-02T18:09:16.984Z,83.10
2023-01-02T18:11:44.777Z,83.77
2023-01-02T18:14:18.986Z,83.64
2023-01-02T18:16:47.490Z,83.49
2023-01-02T18:19:23.606Z,84.06
2023-01-02T18:21:51.491Z,84.19
2023-01-02T18:24:24.431Z,82.74
2023-01-02T18:26:57.387Z,83.50
2023-01-02T18:29:26.465Z,83.69
2023-01-02T18:31:55.218Z,82.17
2023-01-02T18:34:47.159Z,83.62
2023-01-02T18:37:19.274Z,83.27
2023-01-02T18:39:47.147Z,83.65
2023-01-02T18:42:18.156Z,82.93
2023-01-02T18:44:47.118Z,81.23
2023-01-02T18:47:25.724Z,81.67
2023-01-02T18:49:54.420Z,82.34
2023-01-02T18:52:25.185Z,83.18
2023-01-02T18:54:59.516Z,82.12
2023-01-02T18:57:32.028Z,81.14
2023-01-02T19:00:14.983Z,82.85
2023-01-02T19:02:53.606Z,83.29
2023-01-02T19:05:25.407Z,82.01
2023-01-02T19:07:54.891Z,82.46
2023-01-02T19:10:37.100Z,82.42
2023-01-02T19:13:07.918Z,83.36
2023-01-02T19:15:43.820Z,82.78
2023-01-02T19:18:37.755Z,82.78
2023-01-02T19:21:16.258Z,82.90
2023-01-02T19:23:50.431Z,83.88
2023-01-02T19:26:22.535Z,84.71
2023-01-02T19:28:54.250Z,82.99
2023-01-02T19:31:23.978Z,83.20
2023-01-02T19:33:56.990Z,82.72
2023-01-02T19:36:36.403Z,84.35
2023-01-02T19:39:22.537Z,84.13
2023-01-02T19:42:07.844Z,84.34
2023-01-02T19:44:35.301Z,84.67
2023-01-02T19:47:04.185Z,84.44
2023-01-02T19:49:31.655Z,85.75
2023-01-02T19:51:59.343Z,86.12
2023-01-02T19:54:26.845Z,86.60
2023-01-02T19:56:54.355Z,87.42
2023-01-02T19:59:21.835Z,86.70
2023-01-02T20:01:49.424Z,86.51
2023-01-02T20:04:18.275Z,86.26
2023-01-02T20:06:45.743Z,87.63
2023-01-02T20:09:13.491Z,87.73
2023-01-02T20:12:04.008Z,87.47
2023-01-02T20:14:34.808Z,88.92
2023-01-02T20:17:02.589Z,89.50
2023-01-02T20:19:31.531Z,89.30
2023-01-02T20:21:59.178Z,89.25
2023-01-02T20:24:27.566Z,88.00
2023-01-02T20:26:55.589Z,87.62
2023-01-02T20:29:23.195Z,87.45
2023-01-02T20:31:51.425Z,87.90
2023-01-02T20:34:19.688Z,87.54
2023-01-02T20:36:48.650Z,87.63
2023-01-02T20:39:16.471Z,87.94
2023-01-02T20:41:45.289Z,88.29
2023-01-02T20:44:14.553Z,88.39
2023-01-02T20:46:42.294Z,89.11
2023-01-02T20:49:11.076Z,89.40
2023-01-02T20:51:38.836Z,89.09
2023-01-02T20:54:11.538Z,89.42
2023-01-02T20:56:38.999Z,89.24
2023-01-02T20:59:06.511Z,90.10
2023-01-02T21:01:34.141Z,89.90
2023-01-02T21:04:01.764Z,89.59
2023-01-02T21:06:29.260Z,90.80
2023-01-02T21:08:56.759Z,90.83
2023-01-02T21:11:25.574Z,91.18
2023-01-02T21:13:53.093Z,90.91
2023-01-02T21:16:20.634Z,91.72
2023-01-02T21:18:48.190Z,91.25
2023-01-02T21:21:20.122Z,91.07
2023-01-02T21:23:49.037Z,90.81
2023-01-02T21:26:19.288Z,91.21
2023-01-02T21:28:49.786Z,90.86
2023-01-02T21:31:18.902Z,90.65
2023-01-02T21:33:46.841Z,90.74
2023-01-02T21:36:15.429Z,90.40
2023-01-02T21:38:43.019Z,90.48
2023-01-02T21:41:28.848Z,89.90
2023-01-02T21:43:57.728Z,90.41
2023-01-02T21:46:25.313Z,91.15
2023-01-02T21:48:52.817Z,90.61
2023-01-02T21:51:20.281Z,91.39
2023-01-02T21:53:49.490Z,91.37
2023-01-02T21:56:16.959Z,91.75
2023-01-02T21:58:44.418Z,91.72
2023-01-02T22:01:13.363Z,91.50
2023-01-02T22:03:40.995Z,91.88
2023-01-02T22:06:08.535Z,91.97
2023-01-02T22:08:35.988Z,91.76
2023-01-02T22:11:21.097Z,91.49
2023-01-02T22:13:48.540Z,91.35
2023-01-02T22:16:17.435Z,91.40
2023-01-02T22:18:44.912Z,91.12
2023-01-02T22:21:12.359Z,90.82
2023-01-02T22:23:39.815Z,90.79
2023-01-02T22:26:07.737Z,91.10
2023-01-02T22:28:35.198Z,90.85
2023-01-02T22:31:02.811Z,90.71
2023-01-02T22:33:31.687Z,89.71
2023-01-02T22:35:59.144Z,89.87
2023-01-02T22:38:26.633Z,89.25
2023-01-02T22:40:54.675Z,89.63
2023-01-02T22:43:24.837Z,90.42
2023-01-02T22:45:54.137Z,90.00
2023-01-02T22:48:23.696Z,90.24
2023-01-02T22:50:55.877Z,90.90
2023-01-02T22:53:27.081Z,91.07
2023-01-02T22:55:54.693Z,90.77
2023-01-02T22:58:23.106Z,90.39
2023-01-02T23:00:58.450Z,89.87
2023-01-02T23:03:28.711Z,90.35
2023-01-02T23:05:57.925Z,90.28
2023-01-02T23:08:25.483Z,90.22
2023-01-02T23:10:53.084Z,90.40
2023-01-02T23:13:20.756Z,89.78
2023-01-02T23:16:06.020Z,89.55
2023-01-02T23:18:56.523Z,90.13
2023-01-02T23:21:30.999Z,90.24
2023-01-02T23:23:58.624Z,90.10
2023-01-02T23:26:29.337Z,89.62
2023-01-02T23:29:06.490Z,90.04
2023-01-02T23:31:35.140Z,90.06
2023-01-02T23:34:02.658Z,90.87
2023-01-02T23:36:31.551Z,90.16
2023-01-02T23:38:59.005Z,90.89
2023-01-02T23:41:26.473Z,90.63
2023-01-02T23:43:54.062Z,90.03
2023-01-02T23:46:21.624Z,90.13
2023-01-02T23:48:49.160Z,90.48
2023-01-02T23:51:16.773Z,90.44
2023-01-02T23:53:45.824Z,90.71
2023-01-02T23:56:18.551Z,90.68
2023-01-02T23:58:46.420Z,89.71
